Siletz, OR

7:07 PM PST on December 21, 2014 (GMT -0800)
Siletz | Change Station
CLOSE
Current Station
Personal Weather Station
Location: Siletz, OR
Elevation: 256 ft
Nearby Weather Stations

Elev 256 ft 44.73 °N, 123.91 °W | Updated 14 seconds ago

Rain
Rain
51.4 °F
Feels Like 51.4 °F
N
0.0
Wind Variable Wind from WNW
Gusts 0.0 mph

Today
High -- | Low -- °F
--% Chance of Precip.
Yesterday
High -- | Low -- °F
Precip. -- in
7:49 AM 4:37 PM
New Moon, 0% visible
Pressure 30.23 in
Visibility 2.5 miles
Clouds Mostly Cloudy 400 ft
Overcast 800 ft
Dew Point 49 °F
Humidity 92%
Rainfall 0.77 in
Snow Depth Not available.
UV 0 out of 12
Pollen .50 out of 12
Air Quality Not available.
Flu Activity Not available.
METAR KONP 220255Z AUTO 22006KT 2 1/2SM RA BKN004 OVC008 11/11 A3023 RMK AO2 P0004

More Conditions Fewer Conditions

Pressure 30.23 in
Visibility 2.5 miles
Clouds Mostly Cloudy 400 ft
Overcast 800 ft
Dew Point 49 °F
Humidity 92%
Rainfall 0.77 in
Snow Depth Not available.
UV 0 out of 12
Pollen .50 out of 12
Air Quality Not available.
Flu Activity Not available.
METAR KONP 220255Z AUTO 22006KT 2 1/2SM RA BKN004 OVC008 11/11 A3023 RMK AO2 P0004

More Conditions Fewer Conditions

10-Day Weather Forecast

Almanac

Astronomy

Dec. 21, 2014 Rise Set
Actual Time
Civil Twilight
Nautical Twilight
Astronomical Twilight
Moon
Length of Visible Light
Length of Day
Tomorrow will be .
, % of the Moon is Illuminated

Today's Extremes

State Highs State Lows

Community

WunderPhotos

Upload Photos

1,779,528 photos uploaded!

WunderBlogs® & News

Nearby

Air Quality

  Air Quality AQ Index Pollutant
Not available.

Snow Depth

Station Depth Elevation

Earthquake Activity

City Distance Mag. Time & Date
Minimum magnitude displayed is 2.5.

Coastal Water Temperatures

Place Temperature

Nearby Weather Stations